Time;durP1;ratioP1;P1;durP2;ratioP2;P2;SDS_P1;SDS_P2;PMS_P1;PMS_P2;Temp;Humidity;BMP_temperature;BMP_pressure;BME280_temperature;BME280_humidity;BME280_pressure;Samples;Min_cycle;Max_cycle;Signal;HPM_P1;HPM_P2
2024/04/04 00:00:45;;;;;;;17.40;7.30;;;;;;;3.82;68.32;101023.27;104840;1260;137752;-72
2024/04/04 00:03:32;;;;;;;18.50;7.40;;;;;;;3.84;68.28;101020.83;104949;1259;76894;-71
2024/04/04 00:05:59;;;;;;;19.90;7.90;;;;;;;3.87;68.45;101019.08;104807;1259;137663;-73
2024/04/04 00:08:25;;;;;;;16.20;8.80;;;;;;;3.87;68.31;101014.89;105097;1255;73148;-72
2024/04/04 00:10:56;;;;;;;15.00;7.40;;;;;;;3.84;68.32;101015.09;105165;1259;62042;-72
2024/04/04 00:13:22;;;;;;;13.50;6.10;;;;;;;3.82;68.42;101011.35;104841;1260;138473;-72
2024/04/04 00:15:50;;;;;;;14.10;5.90;;;;;;;3.81;68.47;101004.46;105038;1259;76217;-72
2024/04/04 00:18:16;;;;;;;11.00;5.40;;;;;;;3.80;68.39;101006.16;104835;1259;137875;-72
2024/04/04 00:20:43;;;;;;;12.50;5.70;;;;;;;3.78;68.39;101001.16;104964;1259;72345;-72
2024/04/04 00:23:10;;;;;;;11.80;5.40;;;;;;;3.74;68.26;101007.36;105043;1256;138505;-71
2024/04/04 00:25:36;;;;;;;12.80;5.70;;;;;;;3.69;68.36;101009.40;104770;1259;62051;-71
2024/04/04 00:28:04;;;;;;;16.90;6.20;;;;;;;3.67;68.67;101008.36;104748;1264;74273;-71
2024/04/04 00:30:30;;;;;;;13.90;5.70;;;;;;;3.65;68.70;101005.34;104683;1259;138581;-71
2024/04/04 00:32:57;;;;;;;16.70;5.80;;;;;;;3.64;68.76;100999.36;105033;1254;73228;-70
2024/04/04 00:35:24;;;;;;;12.20;4.70;;;;;;;3.61;68.85;100999.02;104922;1255;138774;-69
2024/04/04 00:37:50;;;;;;;10.60;4.30;;;;;;;3.58;68.98;100999.19;105151;1257;62272;-70
2024/04/04 00:40:17;;;;;;;10.70;4.70;;;;;;;3.57;69.16;101000.54;105131;1255;76475;-70
2024/04/04 00:42:48;;;;;;;12.30;5.10;;;;;;;3.57;69.07;100998.23;104755;1258;137956;-66
2024/04/04 00:45:15;;;;;;;13.20;4.70;;;;;;;3.58;69.31;100996.23;104862;1260;71727;-64
2024/04/04 00:47:44;;;;;;;9.70;4.80;;;;;;;3.59;69.28;100995.95;108744;1253;138067;-64
2024/04/04 00:50:11;;;;;;;11.30;5.20;;;;;;;3.58;69.35;100998.52;108903;1253;62606;-65
2024/04/04 00:52:38;;;;;;;7.10;4.70;;;;;;;3.58;69.30;100998.31;108967;1254;73217;-65
2024/04/04 00:55:06;;;;;;;13.00;5.80;;;;;;;3.58;69.46;100999.39;108768;1254;138032;-64
2024/04/04 00:57:34;;;;;;;11.80;5.50;;;;;;;3.58;69.40;100999.20;108709;1254;71455;-64
2024/04/04 01:00:00;;;;;;;16.20;5.90;;;;;;;3.60;69.47;101001.05;108645;1253;137844;-64
2024/04/04 01:02:27;;;;;;;17.40;7.40;;;;;;;3.58;69.48;101000.23;108756;1259;62153;-65
2024/04/04 01:04:54;;;;;;;11.00;5.40;;;;;;;3.55;69.50;100998.64;109254;1254;73460;-65
2024/04/04 01:07:20;;;;;;;18.00;5.20;;;;;;;3.52;69.53;101001.27;106939;1254;138801;-64
2024/04/04 01:09:47;;;;;;;9.80;5.00;;;;;;;3.47;69.41;101004.63;105109;1258;72298;-63
2024/04/04 01:12:14;;;;;;;10.40;3.90;;;;;;;3.40;69.46;101006.83;104424;1257;138503;-63
2024/04/04 01:14:40;;;;;;;11.40;5.00;;;;;;;3.39;69.67;101007.79;104676;1254;61267;-66
2024/04/04 01:17:07;;;;;;;12.40;5.00;;;;;;;3.39;69.83;101009.85;104870;1258;62083;-64
2024/04/04 01:19:34;;;;;;;11.40;4.90;;;;;;;3.41;69.96;101010.56;108750;1254;138219;-65
2024/04/04 01:22:01;;;;;;;13.50;5.20;;;;;;;3.43;70.01;101006.83;109012;1258;73230;-63
2024/04/04 01:24:27;;;;;;;12.70;5.40;;;;;;;3.39;69.99;101000.54;109052;1254;137932;-65
2024/04/04 01:26:54;;;;;;;13.90;5.60;;;;;;;3.31;69.93;100999.57;106217;1255;62908;-66
2024/04/04 01:29:20;;;;;;;15.60;5.90;;;;;;;3.27;70.02;101002.43;104678;1254;138523;-64
2024/04/04 01:31:47;;;;;;;13.90;5.80;;;;;;;3.25;70.21;100997.66;104836;1258;67207;-64
2024/04/04 01:34:13;;;;;;;13.50;6.00;;;;;;;3.23;70.31;100995.27;104857;1253;74000;-66
2024/04/04 01:36:40;;;;;;;10.40;6.00;;;;;;;3.17;70.28;100993.16;104949;1258;137825;-63
2024/04/04 01:39:07;;;;;;;13.40;6.30;;;;;;;3.15;70.61;100994.80;105054;1257;62038;-64
2024/04/04 01:41:34;;;;;;;13.20;5.70;;;;;;;3.16;70.62;100994.02;104503;1254;188974;-64
2024/04/04 01:44:00;;;;;;;19.20;7.10;;;;;;;3.18;70.79;100993.61;104749;1254;68347;-64
2024/04/04 01:46:28;;;;;;;16.00;8.20;;;;;;;3.20;70.81;100994.77;104781;1254;71879;-65
2024/04/04 01:48:54;;;;;;;17.50;8.20;;;;;;;3.22;70.92;100990.36;104715;1257;138446;-66
2024/04/04 01:51:21;;;;;;;26.00;12.80;;;;;;;3.24;71.01;100992.23;105059;1254;62006;-64
2024/04/04 01:53:47;;;;;;;33.30;13.00;;;;;;;3.25;71.03;100993.16;104603;1258;138913;-66
2024/04/04 01:56:14;;;;;;;29.90;11.40;;;;;;;3.26;71.26;100995.11;104778;1254;64400;-66
2024/04/04 01:58:41;;;;;;;19.50;9.40;;;;;;;3.28;71.23;100995.42;104755;1257;71675;-65
2024/04/04 02:01:07;;;;;;;17.90;7.90;;;;;;;3.32;71.25;100992.13;104261;1263;138236;-65
2024/04/04 02:03:34;;;;;;;17.10;7.30;;;;;;;3.31;71.07;100990.17;104991;1259;62160;-66
2024/04/04 02:06:00;;;;;;;15.80;6.90;;;;;;;3.31;71.17;100989.86;105024;1254;137764;-65
2024/04/04 02:08:27;;;;;;;17.30;6.60;;;;;;;3.34;71.23;100989.32;105133;1255;67077;-65
2024/04/04 02:10:54;;;;;;;14.60;6.50;;;;;;;3.36;71.15;100990.09;104908;1257;73068;-66
2024/04/04 02:13:21;;;;;;;16.50;6.90;;;;;;;3.36;71.44;100988.36;104593;1258;137979;-66
2024/04/04 02:15:48;;;;;;;16.60;7.00;;;;;;;3.38;71.29;100989.90;108671;1253;59910;-65
2024/04/04 02:18:15;;;;;;;14.30;7.50;;;;;;;3.39;71.42;100984.77;107793;1254;138416;-63
2024/04/04 02:20:42;;;;;;;15.40;6.70;;;;;;;3.41;71.42;100990.96;105026;1254;67957;-63
2024/04/04 02:23:08;;;;;;;16.50;6.50;;;;;;;3.44;71.44;100988.16;105069;1257;73288;-64
2024/04/04 02:25:37;;;;;;;12.10;5.80;;;;;;;3.45;71.38;100985.11;105153;1258;62175;-70
2024/04/04 02:28:04;;;;;;;16.00;5.50;;;;;;;3.47;71.34;100985.22;105052;1257;62139;-63
2024/04/04 02:30:31;;;;;;;12.60;6.00;;;;;;;3.49;71.53;100979.75;108673;1254;139218;-64
2024/04/04 02:32:58;;;;;;;12.50;5.80;;;;;;;3.54;71.47;100977.58;106047;1254;65265;-63
2024/04/04 02:35:24;;;;;;;10.80;5.50;;;;;;;3.55;71.38;100976.30;104708;1254;138387;-63
2024/04/04 02:37:51;;;;;;;15.10;5.80;;;;;;;3.57;71.34;100970.84;104884;1254;61958;-65
2024/04/04 02:40:18;;;;;;;15.00;6.70;;;;;;;3.58;71.23;100967.09;105019;1260;62103;-64
2024/04/04 02:42:44;;;;;;;15.20;6.10;;;;;;;3.58;71.27;100964.66;104932;1257;138225;-64
2024/04/04 02:45:11;;;;;;;16.60;6.70;;;;;;;3.57;71.25;100964.76;105060;1257;65583;-70
2024/04/04 02:47:37;;;;;;;13.60;5.60;;;;;;;3.53;71.15;100965.59;105056;1257;138506;-70
2024/04/04 02:50:05;;;;;;;11.80;5.50;;;;;;;3.50;71.20;100965.08;105066;1254;62853;-70
2024/04/04 02:52:31;;;;;;;10.00;5.60;;;;;;;3.49;71.16;100967.61;104625;1256;62153;-65
2024/04/04 02:54:58;;;;;;;13.70;5.50;;;;;;;3.45;71.24;100959.44;104622;1259;138326;-65
2024/04/04 02:57:24;;;;;;;14.60;6.10;;;;;;;3.47;71.30;100963.70;104915;1260;66303;-64
2024/04/04 02:59:51;;;;;;;13.60;6.20;;;;;;;3.45;71.29;100961.15;104631;1254;138610;-65
2024/04/04 03:02:18;;;;;;;14.10;6.20;;;;;;;3.43;71.27;100963.98;104851;1253;62117;-64
2024/04/04 03:04:45;;;;;;;8.30;4.70;;;;;;;3.42;71.34;100962.56;104738;1257;63750;-65
2024/04/04 03:07:11;;;;;;;16.00;5.90;;;;;;;3.44;71.47;100959.05;104875;1257;138260;-66
2024/04/04 03:09:38;;;;;;;12.90;5.70;;;;;;;3.45;71.41;100958.74;104799;1257;66889;-66
2024/04/04 03:12:05;;;;;;;13.20;5.30;;;;;;;3.46;71.59;100957.58;104684;1259;138512;-64
2024/04/04 03:14:32;;;;;;;12.60;5.30;;;;;;;3.48;71.52;100958.20;108790;1254;60105;-64
2024/04/04 03:16:59;;;;;;;9.70;5.20;;;;;;;3.50;71.56;100960.55;108820;1254;60914;-64
2024/04/04 03:19:25;;;;;;;12.40;5.40;;;;;;;3.51;71.44;100963.58;106590;1253;138059;-64
2024/04/04 03:21:52;;;;;;;13.70;5.60;;;;;;;3.52;71.41;100960.48;105043;1257;65445;-64
2024/04/04 03:24:18;;;;;;;14.90;5.70;;;;;;;3.52;71.43;100964.67;105056;1254;137736;-65
2024/04/04 03:26:45;;;;;;;9.10;5.40;;;;;;;3.53;71.63;100967.85;105057;1254;62176;-65
2024/04/04 03:29:12;;;;;;;10.50;5.40;;;;;;;3.55;71.56;100963.08;104609;1259;138373;-61
2024/04/04 03:31:39;;;;;;;13.30;6.30;;;;;;;3.55;71.69;100963.95;104801;1254;75182;-61
2024/04/04 03:34:06;;;;;;;13.60;7.00;;;;;;;3.55;71.53;100963.96;104718;1257;65685;-60
2024/04/04 03:36:32;;;;;;;17.20;8.00;;;;;;;3.52;71.68;100964.31;104817;1254;139128;-60
2024/04/04 03:38:59;;;;;;;13.90;7.00;;;;;;;3.49;71.71;100965.20;105130;1255;62051;-64
2024/04/04 03:41:26;;;;;;;11.50;7.20;;;;;;;3.50;71.85;100968.23;105019;1254;141076;-63
2024/04/04 03:43:52;;;;;;;16.70;7.00;;;;;;;3.49;71.83;100967.98;104690;1258;76340;-63
2024/04/04 03:46:19;;;;;;;11.20;6.40;;;;;;;3.48;72.04;100968.44;104717;1257;66799;-63
2024/04/04 03:48:45;;;;;;;17.10;6.60;;;;;;;3.49;72.01;100970.05;104476;1257;138849;-63
2024/04/04 03:51:12;;;;;;;14.50;6.40;;;;;;;3.48;72.03;100970.35;104846;1257;62095;-64
2024/04/04 03:53:39;;;;;;;11.70;5.90;;;;;;;3.47;72.04;100970.62;104640;1260;138818;-72
2024/04/04 03:56:06;;;;;;;15.60;5.80;;;;;;;3.48;72.02;100971.39;104823;1254;76450;-72
2024/04/04 03:58:32;;;;;;;13.00;6.60;;;;;;;3.50;72.30;100970.11;104762;1259;67375;-62
2024/04/04 04:00:59;;;;;;;9.80;5.20;;;;;;;3.53;72.29;100968.84;104638;1253;138187;-63
2024/04/04 04:03:25;;;;;;;13.20;4.60;;;;;;;3.53;72.05;100966.25;104775;1257;63309;-72
2024/04/04 04:05:52;;;;;;;11.80;5.00;;;;;;;3.47;71.65;100972.35;104622;1257;138339;-72
2024/04/04 04:08:19;;;;;;;9.50;3.50;;;;;;;3.39;71.39;100967.05;104671;1260;76903;-72
2024/04/04 04:10:45;;;;;;;9.10;3.80;;;;;;;3.35;71.44;100966.44;104800;1259;67143;-74
2024/04/04 04:13:13;;;;;;;11.10;3.80;;;;;;;3.32;71.40;100967.85;104945;1254;137602;-74
2024/04/04 04:15:40;;;;;;;12.40;3.70;;;;;;;3.28;71.25;100968.17;106185;1254;62035;-74
2024/04/04 04:18:06;;;;;;;13.70;4.30;;;;;;;3.24;71.21;100966.19;105944;1254;138222;-74
2024/04/04 04:23:21;;;;;;;17.00;4.50;;;;;;;3.20;71.36;100964.41;105000;1254;138698;-72
2024/04/04 04:25:48;;;;;;;14.20;4.20;;;;;;;3.19;71.22;100964.88;104941;1255;73315;-73
2024/04/04 04:28:15;;;;;;;13.70;5.30;;;;;;;3.19;71.41;100962.61;104763;1257;62085;-74
2024/04/04 04:30:42;;;;;;;16.00;4.50;;;;;;;3.20;71.48;100961.27;104637;1257;139436;-66
2024/04/04 04:33:09;;;;;;;7.00;3.70;;;;;;;3.23;71.53;100961.79;104833;1254;76888;-74
2024/04/04 04:35:36;;;;;;;9.90;3.60;;;;;;;3.25;71.49;100963.30;104953;1254;138337;-66
2024/04/04 04:38:03;;;;;;;12.00;4.10;;;;;;;3.27;71.53;100958.60;105054;1254;73623;-67
2024/04/04 04:40:30;;;;;;;10.70;3.40;;;;;;;3.33;71.55;100964.09;105026;1257;62153;-69
2024/04/04 04:42:57;;;;;;;18.50;4.00;;;;;;;3.34;71.53;100965.55;104702;1254;138267;-65
2024/04/04 04:45:23;;;;;;;10.10;4.60;;;;;;;3.37;71.65;100965.19;104710;1254;306576;-65
2024/04/04 04:47:50;;;;;;;8.50;4.20;;;;;;;3.37;71.56;100968.64;105059;1257;138194;-65
2024/04/04 04:50:17;;;;;;;16.50;5.30;;;;;;;3.37;71.64;100969.54;104885;1258;72327;-65
2024/04/04 04:52:43;;;;;;;14.40;6.50;;;;;;;3.39;71.60;100967.36;104745;1254;62051;-65
2024/04/04 04:55:10;;;;;;;26.80;12.10;;;;;;;3.40;71.86;100970.58;104831;1257;138105;-65
2024/04/04 04:57:37;;;;;;;26.10;13.20;;;;;;;3.41;71.79;100972.39;104963;1254;76473;-66
2024/04/04 05:00:09;;;;;;;24.70;11.20;;;;;;;3.44;71.79;100971.81;104939;1257;138852;-62
2024/04/04 05:02:36;;;;;;;20.10;7.80;;;;;;;3.46;71.89;100972.86;109115;1253;71428;-64
2024/04/04 05:05:12;;;;;;;20.20;7.50;;;;;;;3.47;71.83;100970.48;105298;1253;62104;-64
2024/04/04 05:07:39;;;;;;;18.30;7.80;;;;;;;3.53;71.96;100964.36;105128;1258;61958;-65
2024/04/04 05:10:06;;;;;;;22.10;8.80;;;;;;;3.58;72.06;100964.48;106699;1253;75943;-64
2024/04/04 05:12:33;;;;;;;27.00;10.50;;;;;;;3.62;71.88;100963.64;105012;1257;138634;-64
2024/04/04 05:15:00;;;;;;;25.40;11.20;;;;;;;3.66;71.92;100961.45;104983;1257;72036;-63
2024/04/04 05:17:26;;;;;;;23.80;10.90;;;;;;;3.69;72.00;100960.61;105040;1254;138665;-66
2024/04/04 05:19:53;;;;;;;17.90;8.80;;;;;;;3.74;71.94;100958.41;105146;1257;62054;-63
2024/04/04 05:22:20;;;;;;;15.20;8.50;;;;;;;3.75;71.83;100960.04;105110;1259;75147;-67
2024/04/04 05:24:46;;;;;;;17.10;7.30;;;;;;;3.77;72.01;100959.11;105246;1254;137867;-64
2024/04/04 05:27:13;;;;;;;16.70;5.90;;;;;;;3.79;71.95;100958.17;105057;1254;71235;-68
2024/04/04 05:29:41;;;;;;;13.30;5.90;;;;;;;3.82;72.18;100955.27;104746;1255;137981;-68
2024/04/04 05:32:08;;;;;;;13.40;5.00;;;;;;;3.87;72.21;100956.71;104939;1253;62380;-67
2024/04/04 05:34:34;;;;;;;16.00;4.70;;;;;;;3.94;72.43;100956.05;104981;1256;75135;-67
2024/04/04 05:37:01;;;;;;;11.90;5.10;;;;;;;4.03;72.52;100957.08;105099;1254;138561;-68
2024/04/04 05:39:28;;;;;;;12.10;5.40;;;;;;;4.09;72.45;100956.20;105046;1254;73618;-68
2024/04/04 05:41:54;;;;;;;14.50;5.40;;;;;;;4.18;72.49;100957.20;104977;1257;139251;-66
2024/04/04 05:44:21;;;;;;;10.20;4.60;;;;;;;4.28;72.52;100953.90;104928;1259;62167;-68
2024/04/04 05:46:48;;;;;;;11.30;5.50;;;;;;;4.40;72.69;100952.25;105024;1254;75336;-68
2024/04/04 05:49:15;;;;;;;12.00;6.00;;;;;;;4.48;72.59;100945.26;104757;1260;138678;-67
2024/04/04 05:51:41;;;;;;;13.30;5.90;;;;;;;4.53;72.42;100941.29;105140;1254;73052;-68
2024/04/04 05:54:08;;;;;;;9.10;4.50;;;;;;;4.55;72.38;100943.34;104990;1254;138480;-67
2024/04/04 05:56:35;;;;;;;11.90;5.40;;;;;;;4.52;72.10;100943.19;105013;1259;62122;-68
2024/04/04 05:59:01;;;;;;;15.30;5.90;;;;;;;4.52;72.29;100941.42;105014;1254;76138;-68
2024/04/04 06:01:28;;;;;;;11.70;5.60;;;;;;;4.52;72.07;100938.48;105035;1254;137679;-68
2024/04/04 06:03:54;;;;;;;7.80;5.00;;;;;;;4.52;72.06;100940.38;105039;1257;72477;-67
2024/04/04 06:06:21;;;;;;;10.70;5.40;;;;;;;4.51;72.16;100935.66;105012;1253;137820;-67
2024/04/04 06:08:50;;;;;;;8.40;4.90;;;;;;;4.56;72.27;100937.31;105139;1257;62021;-67
2024/04/04 06:11:16;;;;;;;11.50;5.80;;;;;;;4.59;72.31;100939.57;104937;1254;138585;-68
2024/04/04 06:13:43;;;;;;;11.40;5.40;;;;;;;4.59;72.17;100938.13;104842;1257;66140;-67
2024/04/04 06:16:09;;;;;;;14.70;5.90;;;;;;;4.60;72.17;100940.48;105087;1254;74315;-68
2024/04/04 06:18:36;;;;;;;9.30;5.30;;;;;;;4.61;72.26;100937.94;104913;1254;138699;-67
2024/04/04 06:21:03;;;;;;;12.80;5.90;;;;;;;4.62;72.22;100932.08;105134;1257;64416;-67
2024/04/04 06:23:30;;;;;;;7.30;4.50;;;;;;;4.63;72.10;100928.48;105012;1253;138956;-68
2024/04/04 06:25:57;;;;;;;9.20;4.90;;;;;;;4.63;72.07;100927.76;106124;1257;66730;-67
2024/04/04 06:28:23;;;;;;;7.80;4.50;;;;;;;4.66;72.00;100932.10;105112;1258;71927;-67
2024/04/04 06:30:50;;;;;;;8.40;4.00;;;;;;;4.73;72.01;100935.74;105000;1254;137625;-67
2024/04/04 06:33:16;;;;;;;12.10;4.30;;;;;;;4.80;71.76;100929.70;105058;1254;62432;-67
2024/04/04 06:35:43;;;;;;;12.30;4.70;;;;;;;4.85;71.77;100928.23;104962;1254;138582;-67
2024/04/04 06:38:09;;;;;;;11.40;4.30;;;;;;;4.92;71.69;100930.97;105122;1257;66989;-68
2024/04/04 06:40:39;;;;;;;10.60;4.20;;;;;;;4.89;71.44;100934.13;105206;1254;62070;-69
2024/04/04 06:43:06;;;;;;;11.10;4.10;;;;;;;4.84;71.43;100934.24;105017;1257;138359;-68
2024/04/04 06:45:32;;;;;;;10.40;3.80;;;;;;;4.77;71.26;100931.27;104967;1254;61948;-67
2024/04/04 06:48:00;;;;;;;10.40;4.00;;;;;;;4.72;71.29;100932.37;104989;1253;137738;-68
2024/04/04 06:50:27;;;;;;;10.70;4.10;;;;;;;4.72;71.42;100934.45;104828;1256;65320;-68
2024/04/04 06:52:54;;;;;;;14.40;4.30;;;;;;;4.74;71.62;100930.75;104799;1254;73483;-68
2024/04/04 06:55:21;;;;;;;13.50;4.30;;;;;;;4.73;71.28;100926.34;104977;1257;138631;-68
2024/04/04 06:57:47;;;;;;;10.20;4.10;;;;;;;4.72;71.34;100926.52;105085;1257;62026;-68
2024/04/04 07:00:14;;;;;;;12.30;4.40;;;;;;;4.76;71.37;100922.19;104848;1259;138151;-69
2024/04/04 07:02:41;;;;;;;16.20;4.80;;;;;;;4.84;71.56;100923.10;106621;1257;67032;-68
2024/04/04 07:05:11;;;;;;;9.20;4.40;;;;;;;4.92;71.44;100920.18;105052;1255;72322;-67
2024/04/04 07:07:38;;;;;;;7.40;4.30;;;;;;;4.89;71.06;100918.64;105144;1253;62048;-68
2024/04/04 07:10:05;;;;;;;11.20;4.40;;;;;;;4.85;70.99;100920.21;106003;1259;62236;-68
2024/04/04 07:12:32;;;;;;;12.00;4.60;;;;;;;4.82;71.21;100919.55;105379;1259;137925;-66
2024/04/04 07:14:59;;;;;;;11.30;5.50;;;;;;;4.81;71.23;100918.61;109310;1253;67156;-67
2024/04/04 07:17:31;;;;;;;11.70;5.20;;;;;;;4.75;71.15;100917.27;109091;1254;138041;-67
2024/04/04 07:19:57;;;;;;;10.00;4.80;;;;;;;4.72;71.10;100915.36;109267;1253;60109;-67
2024/04/04 07:22:24;;;;;;;12.40;4.60;;;;;;;4.71;71.32;100916.32;109235;1253;59818;-68
2024/04/04 07:24:51;;;;;;;10.20;4.50;;;;;;;4.69;71.36;100921.29;108870;1254;138347;-68
2024/04/04 07:27:18;;;;;;;13.60;5.30;;;;;;;4.66;71.36;100916.45;109332;1253;59856;-67
2024/04/04 07:29:46;;;;;;;9.40;4.60;;;;;;;4.67;71.53;100917.36;109166;1253;138639;-68
2024/04/04 07:32:13;;;;;;;11.30;5.50;;;;;;;4.68;71.56;100912.38;108987;1254;59902;-67
2024/04/04 07:34:39;;;;;;;8.90;4.80;;;;;;;4.70;71.56;100907.23;109177;1254;60959;-67
2024/04/04 07:37:06;;;;;;;10.30;5.30;;;;;;;4.72;71.70;100908.93;109223;1253;138486;-67
2024/04/04 07:39:33;;;;;;;10.70;5.10;;;;;;;4.80;71.97;100909.15;108612;1253;65062;-67
2024/04/04 07:42:00;;;;;;;8.40;4.30;;;;;;;4.88;71.93;100908.69;105641;1253;137733;-68
2024/04/04 07:44:26;;;;;;;7.50;4.20;;;;;;;4.87;71.85;100909.55;105106;1254;62078;-67
2024/04/04 07:46:53;;;;;;;8.40;4.50;;;;;;;4.87;72.01;100906.92;105047;1259;62064;-68
2024/04/04 07:49:20;;;;;;;13.70;5.70;;;;;;;4.89;71.98;100904.37;104959;1254;137554;-68
2024/04/04 07:51:50;;;;;;;11.30;5.00;;;;;;;4.87;72.10;100906.38;105074;1258;66828;-67
2024/04/04 07:54:16;;;;;;;12.30;5.30;;;;;;;4.85;72.15;100909.08;104814;1257;138047;-68
2024/04/04 07:56:43;;;;;;;10.70;5.90;;;;;;;4.83;72.18;100908.44;104981;1254;62143;-68
2024/04/04 07:59:10;;;;;;;10.60;6.00;;;;;;;4.82;72.35;100910.46;104963;1254;62198;-68
2024/04/04 08:01:37;;;;;;;13.80;5.90;;;;;;;4.85;72.35;100908.52;104924;1258;139080;-68
2024/04/04 08:04:04;;;;;;;11.00;5.20;;;;;;;4.88;72.35;100909.04;105045;1254;66852;-69
2024/04/04 08:06:31;;;;;;;13.30;5.50;;;;;;;4.91;72.45;100908.33;104970;1257;138577;-68
2024/04/04 08:08:59;;;;;;;9.10;5.40;;;;;;;4.92;72.35;100906.10;105120;1257;62293;-69
2024/04/04 08:11:25;;;;;;;11.10;6.10;;;;;;;4.96;72.59;100904.56;109134;1253;137975;-66
2024/04/04 08:13:52;;;;;;;13.00;7.10;;;;;;;5.01;72.47;100897.02;109232;1255;74500;-67
2024/04/04 08:16:18;;;;;;;14.60;6.40;;;;;;;5.13;72.66;100899.64;109251;1254;65236;-67
2024/04/04 08:18:45;;;;;;;12.10;6.10;;;;;;;5.24;72.61;100900.17;109204;1253;137568;-67
2024/04/04 08:21:15;;;;;;;14.40;6.70;;;;;;;5.33;72.40;100905.18;109279;1254;59818;-68
2024/04/04 08:23:42;;;;;;;12.50;6.50;;;;;;;5.36;72.41;100902.20;109193;1253;137752;-67
2024/04/04 08:26:08;;;;;;;11.90;6.20;;;;;;;5.34;72.18;100903.16;108074;1257;75825;-67
2024/04/04 08:28:35;;;;;;;9.70;6.70;;;;;;;5.34;72.13;100902.10;105045;1254;67618;-67
2024/04/04 08:31:02;;;;;;;12.10;6.30;;;;;;;5.37;72.15;100899.63;104939;1254;138562;-66
2024/04/04 08:33:30;;;;;;;9.90;5.70;;;;;;;5.41;72.20;100900.37;109279;1253;59839;-68
2024/04/04 08:35:58;;;;;;;11.90;5.70;;;;;;;5.48;72.21;100897.88;109084;1252;138431;-68
2024/04/04 08:38:24;;;;;;;11.90;7.10;;;;;;;5.57;72.28;100894.63;107757;1253;74257;-69
2024/04/04 08:40:54;;;;;;;11.30;6.70;;;;;;;5.68;72.22;100889.05;105081;1254;62051;-68
2024/04/04 08:43:22;;;;;;;15.50;7.60;;;;;;;5.73;72.04;100884.75;104938;1257;138114;-67
2024/04/04 08:45:49;;;;;;;8.60;7.00;;;;;;;5.79;72.04;100884.37;105055;1254;62150;-68
2024/04/04 08:48:17;;;;;;;13.40;7.40;;;;;;;5.84;71.91;100881.12;104810;1259;138062;-67
2024/04/04 08:50:47;;;;;;;10.30;6.30;;;;;;;5.92;71.94;100875.93;109278;1254;75179;-67
2024/04/04 08:53:19;;;;;;;13.40;8.00;;;;;;;6.01;71.84;100870.80;109082;1254;137743;-68
2024/04/04 08:55:46;;;;;;;12.20;7.60;;;;;;;6.04;71.76;100870.21;109191;1254;73288;-67
2024/04/04 08:58:13;;;;;;;8.90;6.20;;;;;;;6.11;71.76;100873.65;109247;1254;59804;-67
2024/04/04 09:00:40;;;;;;;11.60;7.20;;;;;;;6.20;71.83;100871.80;109181;1254;138065;-67
2024/04/04 09:03:07;;;;;;;10.00;6.80;;;;;;;6.35;72.03;100874.20;107294;1254;74827;-67
2024/04/04 09:05:34;;;;;;;9.50;6.50;;;;;;;6.47;71.84;100873.34;104943;1257;138564;-67
2024/04/04 09:08:04;;;;;;;9.60;6.50;;;;;;;6.52;71.49;100876.51;104782;1257;71698;-68
2024/04/04 09:10:31;;;;;;;10.30;7.00;;;;;;;6.48;71.20;100875.81;109224;1254;59842;-68
2024/04/04 09:13:04;;;;;;;9.60;6.70;;;;;;;6.47;71.27;100874.55;107172;1257;138358;-67
2024/04/04 09:15:31;;;;;;;10.20;6.70;;;;;;;6.48;71.35;100868.84;109251;1253;74247;-67
2024/04/04 09:18:07;;;;;;;12.10;7.80;;;;;;;6.50;71.42;100867.34;109190;1253;138640;-67
2024/04/04 09:20:40;;;;;;;9.10;6.50;;;;;;;6.49;71.42;100866.09;105208;1254;71741;-68
2024/04/04 09:23:08;;;;;;;11.90;8.10;;;;;;;6.46;71.30;100871.54;109228;1253;60061;-68
2024/04/04 09:25:35;;;;;;;10.60;8.30;;;;;;;6.38;71.33;100871.36;109077;1253;138541;-68
2024/04/04 09:28:05;;;;;;;18.80;11.60;;;;;;;6.35;71.45;100874.21;109156;1253;75557;-68
2024/04/04 09:30:32;;;;;;;16.30;11.00;;;;;;;6.31;71.52;100869.16;109056;1254;137992;-68
2024/04/04 09:32:59;;;;;;;17.60;11.30;;;;;;;6.29;71.58;100869.05;109292;1254;72776;-68
2024/04/04 09:35:26;;;;;;;22.20;13.40;;;;;;;6.26;71.59;100863.34;109163;1253;138915;-69
2024/04/04 09:37:52;;;;;;;17.50;12.60;;;;;;;6.32;71.96;100860.14;109076;1254;61979;-68
2024/04/04 09:40:19;;;;;;;17.40;11.80;;;;;;;6.46;72.04;100856.91;109169;1254;74239;-69
2024/04/04 09:42:46;;;;;;;14.20;10.70;;;;;;;6.61;72.18;100857.70;109106;1254;139032;-68
2024/04/04 09:45:13;;;;;;;14.10;8.80;;;;;;;6.68;72.03;100857.13;109044;1254;72427;-68
2024/04/04 09:47:50;;;;;;;13.70;8.70;;;;;;;6.75;71.98;100851.84;109109;1253;138098;-69
2024/04/04 09:50:18;;;;;;;11.60;8.00;;;;;;;6.81;72.05;100853.52;109309;1254;59780;-68
2024/04/04 09:52:45;;;;;;;17.40;9.30;;;;;;;6.88;72.03;100852.90;109300;1253;73752;-68
2024/04/04 09:55:13;;;;;;;11.40;8.10;;;;;;;6.93;72.06;100856.45;109173;1253;137870;-69
2024/04/04 09:57:40;;;;;;;14.30;8.00;;;;;;;6.98;71.92;100850.16;108930;1254;71945;-69
2024/04/04 10:00:21;;;;;;;10.90;7.80;;;;;;;7.06;71.92;100848.06;108991;1259;138033;-68
2024/04/04 10:02:53;;;;;;;13.00;7.10;;;;;;;7.12;71.82;100840.27;109165;1253;60236;-69
2024/04/04 10:05:21;;;;;;;8.20;6.40;;;;;;;7.19;71.81;100837.94;109180;1253;138805;-68
2024/04/04 10:07:49;;;;;;;10.00;6.10;;;;;;;7.32;71.85;100834.27;109211;1254;65484;-69
2024/04/04 10:10:16;;;;;;;8.90;6.90;;;;;;;7.41;71.75;100837.06;109195;1254;72012;-68
2024/04/04 10:12:43;;;;;;;20.00;8.90;;;;;;;7.51;71.78;100837.80;109044;1253;138305;-68
2024/04/04 10:15:10;;;;;;;11.20;7.90;;;;;;;7.58;71.67;100828.48;107945;1259;60212;-67
2024/04/04 10:17:43;;;;;;;12.30;8.10;;;;;;;7.66;71.65;100825.81;104995;1257;138079;-67
2024/04/04 10:20:10;;;;;;;7.60;6.30;;;;;;;7.79;71.64;100824.72;105101;1254;65834;-68
2024/04/04 10:22:37;;;;;;;6.80;5.40;;;;;;;7.89;71.53;100826.65;109033;1253;72427;-69
2024/04/04 10:25:04;;;;;;;8.40;6.60;;;;;;;7.97;71.36;100823.27;109013;1254;138254;-69
2024/04/04 10:27:31;;;;;;;7.80;5.80;;;;;;;8.07;71.24;100822.23;109188;1253;60251;-70
2024/04/04 10:29:58;;;;;;;7.60;5.80;;;;;;;8.12;70.92;100817.02;109228;1253;138423;-70
2024/04/04 10:32:27;;;;;;;9.40;5.70;;;;;;;8.08;70.66;100815.11;109050;1253;66563;-69
2024/04/04 10:35:01;;;;;;;8.00;5.50;;;;;;;8.06;70.62;100815.39;109309;1253;71432;-70
2024/04/04 10:37:28;;;;;;;7.90;5.70;;;;;;;8.00;70.43;100814.83;109277;1252;137653;-69
2024/04/04 10:39:54;;;;;;;9.10;5.70;;;;;;;7.93;70.31;100818.40;109207;1254;60172;-69
2024/04/04 10:42:22;;;;;;;10.10;6.70;;;;;;;7.97;70.51;100821.02;109210;1254;137666;-69
2024/04/04 10:44:51;;;;;;;12.10;7.40;;;;;;;8.02;70.40;100824.51;105878;1254;66757;-69
2024/04/04 10:47:17;;;;;;;12.70;7.50;;;;;;;7.99;70.20;100827.19;109157;1253;138959;-69
2024/04/04 10:49:44;;;;;;;11.00;7.40;;;;;;;7.89;70.02;100824.75;109330;1254;59734;-69
2024/04/04 10:52:11;;;;;;;12.00;7.50;;;;;;;7.84;70.16;100822.27;109306;1253;60626;-70
2024/04/04 10:54:37;;;;;;;13.20;8.90;;;;;;;7.84;70.19;100820.53;109098;1253;138732;-70
2024/04/04 10:57:04;;;;;;;11.40;8.70;;;;;;;7.82;70.10;100812.77;108791;1255;66317;-68
2024/04/04 10:59:31;;;;;;;14.10;8.40;;;;;;;7.83;70.12;100803.55;104989;1253;138721;-69
2024/04/04 11:02:02;;;;;;;14.20;8.00;;;;;;;7.84;70.15;100806.74;105214;1254;62166;-69
2024/04/04 11:04:30;;;;;;;13.30;7.60;;;;;;;7.87;70.15;100803.85;105273;1257;62071;-70
2024/04/04 11:06:57;;;;;;;14.00;8.80;;;;;;;7.92;70.35;100801.97;105066;1254;137916;-70
2024/04/04 11:09:25;;;;;;;17.50;9.80;;;;;;;8.07;70.58;100801.10;104982;1254;66218;-69
2024/04/04 11:11:53;;;;;;;16.50;9.90;;;;;;;8.22;70.57;100802.16;104944;1255;138462;-69
2024/04/04 11:14:21;;;;;;;14.60;9.70;;;;;;;8.34;70.52;100798.71;109110;1256;60008;-69
2024/04/04 11:16:49;;;;;;;17.30;11.40;;;;;;;8.50;70.54;100800.90;105280;1257;61284;-70